Time;durP1;ratioP1;P1;durP2;ratioP2;P2;SDS_P1;SDS_P2;PMS_P1;PMS_P2;Temp;Humidity;BMP_temperature;BMP_pressure;BME280_temperature;BME280_humidity;BME280_pressure;Samples;Min_cycle;Max_cycle;Signal;HPM_P1;HPM_P2
2023/01/30 00:00:52;;;;;;;11.77;8.52;;;;;;;;;;5002072;28;20050;-82
2023/01/30 00:03:20;;;;;;;11.93;8.02;;;;;;;;;;4981329;28;20443;-83
2023/01/30 00:05:47;;;;;;;26.20;23.92;;;;;;;;;;4995173;28;20053;-82
2023/01/30 00:08:15;;;;;;;9.75;8.20;;;;;;;;;;4970193;28;20038;-83
2023/01/30 00:10:43;;;;;;;10.52;7.90;;;;;;;;;;4974659;28;20056;-83
2023/01/30 00:13:10;;;;;;;11.05;8.57;;;;;;;;;;4995960;28;20058;-83
2023/01/30 00:15:38;;;;;;;9.95;7.97;;;;;;;;;;4988149;28;20046;-83
2023/01/30 00:18:05;;;;;;;11.25;8.10;;;;;;;;;;4997475;28;20042;-83
2023/01/30 00:20:33;;;;;;;13.98;11.15;;;;;;;;;;4978945;28;20133;-82
2023/01/30 00:23:00;;;;;;;10.05;8.38;;;;;;;;;;4985166;28;20047;-83
2023/01/30 00:25:28;;;;;;;12.90;11.55;;;;;;;;;;4996630;28;20091;-84
2023/01/30 00:27:55;;;;;;;11.15;7.70;;;;;;;;;;4976041;28;20508;-84
2023/01/30 00:30:23;;;;;;;10.38;8.35;;;;;;;;;;4980294;28;20084;-82
2023/01/30 00:32:56;;;;;;;9.85;7.82;;;;;;;;;;4971674;28;20093;-82
2023/01/30 00:35:27;;;;;;;12.05;8.27;;;;;;;;;;4984251;28;20054;-82
2023/01/30 00:37:58;;;;;;;29.20;26.85;;;;;;;;;;4991703;28;20706;-83
2023/01/30 00:40:27;;;;;;;11.20;8.68;;;;;;;;;;4984126;28;20572;-82
2023/01/30 00:48:30;;;;;;;12.93;8.40;;;;;;;;;;4985074;28;20045;-82
2023/01/30 00:50:58;;;;;;;12.00;8.57;;;;;;;;;;4983617;28;20483;-83
2023/01/30 00:53:26;;;;;;;10.77;8.50;;;;;;;;;;4971079;28;20125;-83
2023/01/30 00:55:54;;;;;;;12.07;7.93;;;;;;;;;;4973393;28;20065;-82
2023/01/30 00:58:22;;;;;;;14.77;9.48;;;;;;;;;;4993187;28;20054;-82
2023/01/30 01:00:50;;;;;;;11.95;10.35;;;;;;;;;;4977808;28;20081;-82
2023/01/30 01:03:18;;;;;;;12.55;9.23;;;;;;;;;;4996535;28;20402;-82
2023/01/30 01:05:46;;;;;;;13.05;11.82;;;;;;;;;;4984803;28;20050;-82
2023/01/30 01:08:14;;;;;;;34.05;31.20;;;;;;;;;;4985315;28;20074;-82
2023/01/30 01:10:42;;;;;;;35.70;32.95;;;;;;;;;;4978931;28;20146;-82
2023/01/30 01:13:09;;;;;;;11.73;8.35;;;;;;;;;;4973136;28;20078;-82
2023/01/30 01:15:37;;;;;;;12.68;8.93;;;;;;;;;;4974025;28;20078;-82
2023/01/30 01:18:05;;;;;;;13.07;9.57;;;;;;;;;;5014586;28;20062;-82
2023/01/30 01:20:32;;;;;;;12.07;8.77;;;;;;;;;;4998963;28;20050;-81
2023/01/30 01:22:59;;;;;;;14.23;9.82;;;;;;;;;;4992726;28;20038;-82
2023/01/30 01:25:27;;;;;;;11.88;8.10;;;;;;;;;;4989291;23;20381;-79
2023/01/30 01:27:54;;;;;;;21.20;16.63;;;;;;;;;;4982013;28;20170;-79
2023/01/30 01:30:22;;;;;;;16.63;15.13;;;;;;;;;;4986846;28;20046;-79
2023/01/30 01:32:49;;;;;;;14.50;9.02;;;;;;;;;;4965782;28;20129;-79
2023/01/30 01:35:18;;;;;;;14.27;10.32;;;;;;;;;;4949031;28;20050;-79
2023/01/30 01:37:46;;;;;;;14.98;10.27;;;;;;;;;;4967223;28;20169;-79
2023/01/30 01:43:14;;;;;;;13.10;9.18;;;;;;;;;;4966128;28;20061;-79
2023/01/30 01:45:43;;;;;;;14.48;9.80;;;;;;;;;;4962279;28;20043;-79
2023/01/30 01:48:34;;;;;;;18.08;10.27;;;;;;;;;;4964156;28;20062;-79
2023/01/30 01:51:10;;;;;;;14.80;12.77;;;;;;;;;;4969253;28;20101;-79
2023/01/30 01:53:44;;;;;;;15.68;9.68;;;;;;;;;;4964896;28;20053;-79
2023/01/30 01:56:14;;;;;;;64.97;59.70;;;;;;;;;;4958067;28;20051;-79
2023/01/30 01:58:51;;;;;;;26.75;24.23;;;;;;;;;;4968135;28;20141;-79
2023/01/30 02:01:18;;;;;;;29.17;26.83;;;;;;;;;;4967224;28;20049;-79
2023/01/30 02:03:48;;;;;;;14.30;10.68;;;;;;;;;;4966125;28;20141;-79
2023/01/30 02:06:16;;;;;;;15.32;10.35;;;;;;;;;;4968357;28;20050;-79
2023/01/30 02:08:46;;;;;;;13.25;9.23;;;;;;;;;;4969765;28;20102;-79
2023/01/30 02:11:25;;;;;;;13.05;8.93;;;;;;;;;;4967101;28;20055;-79
2023/01/30 02:13:53;;;;;;;14.95;10.13;;;;;;;;;;4965467;28;20052;-79
2023/01/30 02:16:21;;;;;;;15.80;9.20;;;;;;;;;;4967218;28;20046;-79
2023/01/30 02:18:49;;;;;;;13.60;10.10;;;;;;;;;;4967266;28;20070;-79
2023/01/30 02:21:34;;;;;;;16.05;9.50;;;;;;;;;;4970736;28;20129;-79
2023/01/30 02:24:18;;;;;;;12.48;8.32;;;;;;;;;;4968020;28;20050;-80
2023/01/30 02:26:55;;;;;;;17.70;15.88;;;;;;;;;;4964836;28;20162;-80
2023/01/30 02:29:43;;;;;;;15.00;9.95;;;;;;;;;;4957440;28;20043;-79
2023/01/30 02:32:27;;;;;;;14.13;8.20;;;;;;;;;;4950827;28;20043;-79
2023/01/30 02:35:23;;;;;;;15.25;10.85;;;;;;;;;;4970802;28;20051;-81
2023/01/30 02:37:50;;;;;;;30.48;27.75;;;;;;;;;;4976367;28;20114;-80
2023/01/30 02:40:27;;;;;;;15.27;10.35;;;;;;;;;;4960737;28;20046;-80
2023/01/30 02:43:00;;;;;;;14.52;9.63;;;;;;;;;;4959120;28;20051;-80
2023/01/30 02:48:28;;;;;;;19.52;17.75;;;;;;;;;;5002657;28;20519;-82
2023/01/30 02:51:02;;;;;;;18.63;10.05;;;;;;;;;;4987051;28;20046;-82
2023/01/30 02:53:33;;;;;;;13.18;8.88;;;;;;;;;;4967852;28;20444;-82
2023/01/30 02:56:02;;;;;;;;;;;;;;;;;;4938230;29;20482;-82
2023/01/30 02:58:34;;;;;;;12.32;8.30;;;;;;;;;;4928473;28;20016;-85
2023/01/30 03:01:02;;;;;;;;;;;;;;;;;;5049808;23;20270;-80
2023/01/30 03:03:53;;;;;;;10.60;7.75;;;;;;;;;;4950763;28;20378;-81
2023/01/30 03:06:21;;;;;;;11.15;8.30;;;;;;;;;;4922755;28;20043;-81
2023/01/30 03:08:49;;;;;;;12.23;10.93;;;;;;;;;;4956461;28;20098;-81
2023/01/30 03:11:17;;;;;;;12.65;8.32;;;;;;;;;;4945053;28;20057;-80
2023/01/30 03:13:51;;;;;;;15.48;14.05;;;;;;;;;;4944079;28;20056;-78
2023/01/30 03:16:22;;;;;;;14.20;11.95;;;;;;;;;;4956695;28;20549;-78
2023/01/30 03:18:49;;;;;;;11.93;8.20;;;;;;;;;;4953535;28;20061;-77
2023/01/30 03:21:17;;;;;;;13.20;8.55;;;;;;;;;;4949811;28;20051;-80
2023/01/30 03:23:45;;;;;;;11.13;7.25;;;;;;;;;;4951995;28;20213;-79
2023/01/30 03:26:16;;;;;;;10.77;7.80;;;;;;;;;;4949138;28;20188;-80
2023/01/30 03:28:44;;;;;;;125.60;115.05;;;;;;;;;;4949474;28;20351;-78
2023/01/30 03:31:12;;;;;;;12.82;9.70;;;;;;;;;;4958196;28;20082;-78
2023/01/30 03:33:39;;;;;;;11.80;9.02;;;;;;;;;;4947704;28;20062;-77
2023/01/30 03:36:07;;;;;;;13.25;8.50;;;;;;;;;;4955692;28;20057;-79
2023/01/30 03:38:35;;;;;;;14.68;11.77;;;;;;;;;;4955309;28;20046;-79
2023/01/30 03:41:03;;;;;;;33.38;30.73;;;;;;;;;;4950050;28;20376;-79
2023/01/30 03:43:32;;;;;;;11.85;9.43;;;;;;;;;;4950865;28;20050;-79
2023/01/30 03:46:02;;;;;;;14.70;9.07;;;;;;;;;;4951788;28;20536;-80
2023/01/30 03:48:29;;;;;;;13.95;8.70;;;;;;;;;;4965086;28;20039;-81
2023/01/30 03:50:57;;;;;;;14.50;10.60;;;;;;;;;;4959092;28;20047;-80
2023/01/30 03:53:24;;;;;;;14.82;8.52;;;;;;;;;;4954408;28;20105;-80
2023/01/30 03:55:52;;;;;;;66.28;61.03;;;;;;;;;;4957273;28;20134;-81
2023/01/30 03:58:25;;;;;;;15.25;13.73;;;;;;;;;;4953742;28;20055;-79
2023/01/30 04:00:56;;;;;;;13.70;9.38;;;;;;;;;;4951320;28;20052;-81
2023/01/30 04:03:25;;;;;;;31.52;28.75;;;;;;;;;;4964464;28;20411;-80
2023/01/30 04:05:56;;;;;;;14.88;9.63;;;;;;;;;;4949038;28;20055;-80
2023/01/30 04:08:24;;;;;;;12.25;8.60;;;;;;;;;;4972326;28;20055;-81
2023/01/30 04:10:52;;;;;;;14.57;9.65;;;;;;;;;;4964154;28;20059;-82
2023/01/30 04:13:20;;;;;;;27.63;24.15;;;;;;;;;;4966228;28;20516;-81
2023/01/30 04:15:47;;;;;;;37.78;34.90;;;;;;;;;;4967416;28;20046;-81
2023/01/30 04:18:35;;;;;;;18.52;16.70;;;;;;;;;;4933829;28;20089;-81
2023/01/30 04:21:10;;;;;;;13.55;9.55;;;;;;;;;;4948887;28;20051;-81
2023/01/30 04:23:38;;;;;;;99.32;91.70;;;;;;;;;;4944886;29;20149;-81
2023/01/30 04:26:07;;;;;;;21.75;19.50;;;;;;;;;;4952799;28;20070;-81
2023/01/30 04:28:37;;;;;;;17.23;10.30;;;;;;;;;;4943598;28;20466;-81
2023/01/30 04:31:04;;;;;;;78.82;73.18;;;;;;;;;;4943622;28;20067;-82
2023/01/30 04:33:43;;;;;;;17.33;11.48;;;;;;;;;;4948753;28;20052;-82
2023/01/30 04:36:12;;;;;;;28.10;25.65;;;;;;;;;;4947804;28;20134;-80
2023/01/30 04:38:41;;;;;;;14.88;10.18;;;;;;;;;;4948187;28;20122;-80
2023/01/30 04:41:08;;;;;;;17.35;11.10;;;;;;;;;;4948223;28;20055;-80
2023/01/30 04:43:39;;;;;;;15.80;10.35;;;;;;;;;;4962517;28;20051;-82
2023/01/30 04:46:22;;;;;;;20.80;13.95;;;;;;;;;;4958261;28;20043;-80
2023/01/30 04:48:49;;;;;;;17.05;11.07;;;;;;;;;;4974380;28;20094;-81
2023/01/30 04:51:17;;;;;;;33.70;30.40;;;;;;;;;;4947768;28;20054;-82
2023/01/30 04:53:44;;;;;;;24.27;17.65;;;;;;;;;;4947242;28;20082;-80
2023/01/30 04:56:13;;;;;;;17.70;12.35;;;;;;;;;;4945623;28;20693;-81
2023/01/30 04:58:41;;;;;;;18.35;10.98;;;;;;;;;;4944340;29;20163;-80
2023/01/30 05:01:20;;;;;;;15.60;10.77;;;;;;;;;;4949614;28;20505;-80
2023/01/30 05:03:51;;;;;;;84.88;77.50;;;;;;;;;;4950293;28;20051;-81
2023/01/30 05:06:19;;;;;;;14.73;10.67;;;;;;;;;;4948618;28;20049;-80
2023/01/30 05:08:50;;;;;;;16.75;10.25;;;;;;;;;;4945787;28;20044;-80
2023/01/30 05:11:18;;;;;;;19.80;13.98;;;;;;;;;;4939466;28;20404;-80
2023/01/30 05:13:46;;;;;;;21.42;16.50;;;;;;;;;;4954062;28;20448;-80
2023/01/30 05:16:14;;;;;;;18.02;11.20;;;;;;;;;;4946391;28;20055;-80
2023/01/30 05:18:42;;;;;;;81.40;75.22;;;;;;;;;;4943576;28;20052;-81
2023/01/30 05:21:27;;;;;;;97.40;90.30;;;;;;;;;;4943251;28;20043;-81
2023/01/30 05:23:55;;;;;;;22.92;20.58;;;;;;;;;;4958542;28;20101;-83
2023/01/30 05:26:23;;;;;;;142.85;131.57;;;;;;;;;;4945398;28;20035;-81
2023/01/30 05:28:54;;;;;;;18.33;12.35;;;;;;;;;;4950245;28;20042;-82
2023/01/30 05:31:22;;;;;;;17.63;12.20;;;;;;;;;;4934169;28;20051;-80
2023/01/30 05:33:51;;;;;;;22.60;19.15;;;;;;;;;;4941842;28;20671;-81
2023/01/30 05:36:19;;;;;;;28.98;25.98;;;;;;;;;;4943185;28;20149;-80
2023/01/30 05:38:47;;;;;;;131.13;120.63;;;;;;;;;;4947395;28;20129;-82
2023/01/30 05:41:15;;;;;;;142.65;131.68;;;;;;;;;;4947704;28;20115;-82
2023/01/30 05:43:43;;;;;;;36.53;33.40;;;;;;;;;;4949992;28;20449;-80
2023/01/30 05:46:12;;;;;;;117.40;106.93;;;;;;;;;;4947480;28;20465;-81
2023/01/30 05:48:39;;;;;;;21.20;12.52;;;;;;;;;;4949680;28;20047;-79
2023/01/30 05:51:14;;;;;;;34.25;31.40;;;;;;;;;;4950257;28;20461;-80
2023/01/30 05:53:42;;;;;;;87.65;80.63;;;;;;;;;;4954813;29;20043;-82
2023/01/30 05:56:09;;;;;;;19.85;12.80;;;;;;;;;;4966223;28;20051;-82
2023/01/30 05:58:36;;;;;;;43.72;39.85;;;;;;;;;;4965432;28;20059;-80
2023/01/30 06:01:05;;;;;;;54.97;50.45;;;;;;;;;;4951719;28;20394;-79
2023/01/30 06:03:32;;;;;;;22.85;15.75;;;;;;;;;;4950979;28;20103;-82
2023/01/30 06:06:04;;;;;;;30.55;27.40;;;;;;;;;;4964463;28;20054;-80
2023/01/30 06:08:32;;;;;;;18.65;12.40;;;;;;;;;;4951251;28;20107;-81
2023/01/30 06:11:04;;;;;;;22.50;18.60;;;;;;;;;;4951857;28;20122;-81
2023/01/30 06:13:31;;;;;;;20.13;13.25;;;;;;;;;;4951143;29;20540;-80
2023/01/30 06:15:59;;;;;;;33.38;29.98;;;;;;;;;;4944116;29;20107;-80
2023/01/30 06:18:26;;;;;;;47.30;43.03;;;;;;;;;;4948875;28;20047;-80
2023/01/30 06:20:54;;;;;;;21.30;18.15;;;;;;;;;;4950267;28;20596;-81
2023/01/30 06:23:24;;;;;;;19.55;14.80;;;;;;;;;;4948475;28;20059;-81
2023/01/30 06:25:52;;;;;;;20.52;15.60;;;;;;;;;;4948759;28;20215;-81
2023/01/30 06:28:19;;;;;;;67.25;61.92;;;;;;;;;;4951676;28;20047;-82
2023/01/30 06:30:47;;;;;;;38.08;34.55;;;;;;;;;;4945672;28;20089;-80
2023/01/30 06:33:15;;;;;;;29.35;15.88;;;;;;;;;;4949646;29;20078;-80
2023/01/30 06:35:42;;;;;;;123.45;113.30;;;;;;;;;;4950282;28;20127;-80
2023/01/30 06:38:13;;;;;;;39.88;36.13;;;;;;;;;;4952342;28;20048;-80
2023/01/30 06:40:40;;;;;;;86.07;79.15;;;;;;;;;;4947454;28;20050;-82
2023/01/30 06:43:08;;;;;;;23.00;15.25;;;;;;;;;;4950161;28;20055;-80
2023/01/30 06:45:35;;;;;;;24.00;13.90;;;;;;;;;;4949833;28;20406;-81
2023/01/30 06:48:03;;;;;;;22.33;12.65;;;;;;;;;;4945802;28;20044;-81
2023/01/30 06:50:30;;;;;;;20.35;12.55;;;;;;;;;;4941651;28;20114;-80
2023/01/30 06:52:58;;;;;;;17.15;12.75;;;;;;;;;;4947329;28;20059;-82
2023/01/30 06:55:27;;;;;;;19.73;12.05;;;;;;;;;;4946076;29;20047;-80
2023/01/30 06:58:01;;;;;;;26.33;18.48;;;;;;;;;;4948597;28;20398;-80
2023/01/30 07:00:29;;;;;;;19.98;11.75;;;;;;;;;;4952038;28;20248;-80
2023/01/30 07:02:57;;;;;;;19.05;12.38;;;;;;;;;;4939722;28;20055;-80
2023/01/30 07:05:24;;;;;;;27.38;24.77;;;;;;;;;;4950602;28;20055;-82
2023/01/30 07:07:52;;;;;;;21.52;17.27;;;;;;;;;;4946451;28;20048;-80
2023/01/30 07:10:20;;;;;;;21.40;13.05;;;;;;;;;;4949000;28;20046;-80
2023/01/30 07:12:47;;;;;;;23.80;20.73;;;;;;;;;;4942349;29;20371;-80
2023/01/30 07:15:15;;;;;;;20.88;13.98;;;;;;;;;;4950900;29;20066;-82
2023/01/30 07:17:43;;;;;;;14.75;10.40;;;;;;;;;;4952215;28;20059;-82
2023/01/30 07:20:10;;;;;;;20.13;14.32;;;;;;;;;;4950250;28;20603;-80
2023/01/30 07:22:38;;;;;;;22.23;16.80;;;;;;;;;;4957576;29;20047;-79
2023/01/30 07:25:06;;;;;;;59.10;54.80;;;;;;;;;;4959983;28;20051;-82
2023/01/30 07:27:33;;;;;;;19.70;12.73;;;;;;;;;;4963033;29;20070;-80
2023/01/30 07:30:01;;;;;;;74.82;69.05;;;;;;;;;;4944496;28;20051;-80
2023/01/30 07:32:29;;;;;;;26.85;20.40;;;;;;;;;;4954255;29;20050;-80
2023/01/30 07:34:56;;;;;;;21.13;13.00;;;;;;;;;;4950160;28;20074;-80
2023/01/30 07:37:24;;;;;;;23.45;17.33;;;;;;;;;;4956073;28;20046;-79
2023/01/30 07:39:51;;;;;;;23.50;14.88;;;;;;;;;;4961070;29;20059;-80
2023/01/30 07:42:18;;;;;;;29.98;27.15;;;;;;;;;;4965115;28;20046;-82
2023/01/30 07:44:46;;;;;;;63.50;58.58;;;;;;;;;;4958718;29;20039;-79
2023/01/30 07:47:14;;;;;;;18.25;11.02;;;;;;;;;;4950247;28;20062;-81
2023/01/30 07:49:41;;;;;;;21.27;12.15;;;;;;;;;;4946200;28;20044;-79
2023/01/30 07:52:09;;;;;;;18.50;12.18;;;;;;;;;;4950269;29;20131;-79
2023/01/30 07:54:36;;;;;;;19.38;12.48;;;;;;;;;;4948695;29;20051;-80
2023/01/30 07:57:03;;;;;;;23.88;21.30;;;;;;;;;;4951206;28;20075;-80
2023/01/30 07:59:31;;;;;;;25.75;23.05;;;;;;;;;;4942059;29;20039;-79
2023/01/30 08:01:58;;;;;;;16.90;12.63;;;;;;;;;;4958071;28;20418;-80
2023/01/30 08:04:26;;;;;;;21.65;13.00;;;;;;;;;;4951838;29;20094;-79
2023/01/30 08:06:53;;;;;;;20.85;13.10;;;;;;;;;;4953290;28;20055;-79
2023/01/30 08:09:21;;;;;;;19.17;12.07;;;;;;;;;;4952744;28;20043;-80
2023/01/30 08:11:48;;;;;;;19.35;12.80;;;;;;;;;;4950142;28;20457;-80
2023/01/30 08:14:16;;;;;;;21.35;13.32;;;;;;;;;;4946123;28;20138;-82
2023/01/30 08:16:43;;;;;;;20.98;12.70;;;;;;;;;;4956401;28;20074;-80
2023/01/30 08:19:11;;;;;;;22.00;15.68;;;;;;;;;;4951810;29;20062;-81
2023/01/30 08:21:38;;;;;;;22.73;19.67;;;;;;;;;;4946976;28;20066;-80
2023/01/30 08:24:06;;;;;;;17.02;12.07;;;;;;;;;;4949702;28;20045;-80
2023/01/30 08:26:33;;;;;;;19.00;12.05;;;;;;;;;;4950992;28;20040;-81
2023/01/30 08:29:01;;;;;;;17.60;10.98;;;;;;;;;;4957101;28;20058;-80
2023/01/30 08:31:28;;;;;;;23.55;20.38;;;;;;;;;;4946945;29;20065;-80
2023/01/30 08:33:56;;;;;;;17.30;11.52;;;;;;;;;;4950982;28;20058;-82
2023/01/30 08:36:23;;;;;;;18.42;11.77;;;;;;;;;;4957034;28;20354;-79
2023/01/30 08:38:50;;;;;;;20.02;12.52;;;;;;;;;;4961164;28;20058;-80
2023/01/30 08:41:18;;;;;;;20.55;11.68;;;;;;;;;;4951281;28;20050;-79
2023/01/30 08:43:45;;;;;;;18.98;11.52;;;;;;;;;;4955563;28;20083;-80
2023/01/30 08:46:12;;;;;;;19.67;10.95;;;;;;;;;;4950769;29;20449;-80
2023/01/30 08:48:42;;;;;;;15.27;11.05;;;;;;;;;;4948185;29;20095;-81
2023/01/30 08:51:16;;;;;;;26.67;24.08;;;;;;;;;;4945117;28;20043;-79
2023/01/30 08:53:43;;;;;;;21.83;11.40;;;;;;;;;;4946752;28;20445;-79
2023/01/30 08:56:10;;;;;;;21.38;12.55;;;;;;;;;;4953689;28;20835;-79
2023/01/30 08:58:38;;;;;;;23.08;18.33;;;;;;;;;;4954965;28;20043;-81
2023/01/30 09:01:06;;;;;;;18.92;11.85;;;;;;;;;;4962691;23;20465;-83
2023/01/30 09:03:34;;;;;;;16.52;9.80;;;;;;;;;;4954603;28;20047;-82
2023/01/30 09:06:01;;;;;;;23.02;12.60;;;;;;;;;;4949010;28;20496;-83
2023/01/30 09:08:29;;;;;;;22.58;19.92;;;;;;;;;;4953788;28;20055;-82
2023/01/30 09:11:00;;;;;;;31.83;26.95;;;;;;;;;;4946846;28;20044;-82
2023/01/30 09:13:28;;;;;;;17.87;11.40;;;;;;;;;;4967751;29;20058;-83
2023/01/30 09:15:56;;;;;;;16.30;10.40;;;;;;;;;;4958850;28;20130;-83
2023/01/30 09:18:24;;;;;;;17.58;10.77;;;;;;;;;;4937159;29;20051;-83
2023/01/30 09:20:51;;;;;;;34.17;31.10;;;;;;;;;;4945393;28;20058;-82
2023/01/30 09:23:20;;;;;;;26.52;24.15;;;;;;;;;;4948005;28;20047;-82
2023/01/30 09:25:47;;;;;;;20.02;10.60;;;;;;;;;;4972996;28;20063;-83
2023/01/30 09:28:14;;;;;;;22.02;10.38;;;;;;;;;;4945633;28;20517;-82
2023/01/30 09:30:42;;;;;;;18.35;13.60;;;;;;;;;;4936998;29;20134;-83
2023/01/30 09:33:09;;;;;;;20.80;11.52;;;;;;;;;;4946438;28;20763;-83
2023/01/30 09:35:37;;;;;;;108.65;100.47;;;;;;;;;;4948817;28;20067;-83
2023/01/30 09:38:04;;;;;;;20.88;14.40;;;;;;;;;;4935071;28;20411;-83
2023/01/30 09:40:32;;;;;;;49.20;18.73;;;;;;;;;;4935779;29;20126;-82
2023/01/30 09:43:09;;;;;;;19.63;10.85;;;;;;;;;;4959209;28;20043;-82
2023/01/30 09:46:06;;;;;;;24.48;10.40;;;;;;;;;;4950140;28;20078;-82
2023/01/30 09:48:43;;;;;;;17.17;9.65;;;;;;;;;;4868473;29;20120;-82
2023/01/30 09:51:26;;;;;;;18.60;10.27;;;;;;;;;;4951874;28;20429;-82
2023/01/30 09:53:56;;;;;;;16.70;10.30;;;;;;;;;;4953874;28;20055;-82
2023/01/30 09:56:27;;;;;;;17.02;10.15;;;;;;;;;;4951502;28;20050;-83
2023/01/30 09:58:56;;;;;;;15.38;13.07;;;;;;;;;;4954159;28;20063;-83
2023/01/30 10:01:32;;;;;;;17.98;14.88;;;;;;;;;;4950253;28;20134;-82
2023/01/30 10:04:18;;;;;;;17.48;10.60;;;;;;;;;;4952481;28;20105;-82
2023/01/30 10:07:08;;;;;;;14.25;9.68;;;;;;;;;;4960869;28;20508;-82
2023/01/30 10:09:36;;;;;;;14.45;10.15;;;;;;;;;;4953160;28;20047;-82
2023/01/30 10:12:23;;;;;;;14.10;9.57;;;;;;;;;;4954986;28;20124;-82
2023/01/30 10:15:13;;;;;;;17.73;15.73;;;;;;;;;;4956058;28;20058;-83
2023/01/30 10:17:44;;;;;;;15.85;10.27;;;;;;;;;;4933681;29;20114;-82
2023/01/30 10:20:25;;;;;;;15.80;9.90;;;;;;;;;;4952348;28;20516;-82
2023/01/30 10:22:56;;;;;;;16.90;9.50;;;;;;;;;;4952887;28;20553;-83
2023/01/30 10:25:32;;;;;;;17.73;10.52;;;;;;;;;;4952126;28;20043;-82
2023/01/30 10:28:04;;;;;;;14.98;9.20;;;;;;;;;;4950248;28;20078;-83
2023/01/30 10:30:33;;;;;;;14.52;9.13;;;;;;;;;;4955197;28;20126;-82
2023/01/30 10:33:05;;;;;;;15.52;9.75;;;;;;;;;;4957216;28;20047;-83
2023/01/30 10:35:37;;;;;;;22.00;18.40;;;;;;;;;;4956541;28;20106;-82
2023/01/30 10:38:11;;;;;;;17.88;9.30;;;;;;;;;;4952858;28;20051;-83
2023/01/30 10:40:38;;;;;;;16.75;10.13;;;;;;;;;;4947538;28;20055;-83
2023/01/30 10:43:26;;;;;;;21.10;10.50;;;;;;;;;;4934104;28;20043;-82
2023/01/30 10:45:53;;;;;;;21.67;10.70;;;;;;;;;;4950377;28;20066;-83
2023/01/30 10:48:30;;;;;;;25.52;11.07;;;;;;;;;;4969096;28;20027;-82
2023/01/30 10:51:17;;;;;;;23.42;11.18;;;;;;;;;;4949251;28;20043;-83
2023/01/30 10:53:47;;;;;;;19.08;10.77;;;;;;;;;;4959336;28;20047;-83
2023/01/30 10:56:18;;;;;;;21.35;12.25;;;;;;;;;;4959045;28;20098;-82
2023/01/30 10:58:51;;;;;;;13.52;8.93;;;;;;;;;;4966897;28;20122;-83
2023/01/30 11:01:30;;;;;;;28.38;11.07;;;;;;;;;;4940723;28;20051;-83
2023/01/30 11:04:13;;;;;;;45.17;21.30;;;;;;;;;;4954352;28;20556;-84
2023/01/30 11:06:41;;;;;;;15.85;9.38;;;;;;;;;;4940590;29;20130;-83
2023/01/30 11:09:08;;;;;;;29.40;12.85;;;;;;;;;;4942755;28;20071;-82
2023/01/30 11:11:42;;;;;;;23.77;12.68;;;;;;;;;;4957466;28;20079;-82
2023/01/30 11:14:10;;;;;;;26.98;11.73;;;;;;;;;;4959181;28;20062;-82
2023/01/30 11:16:46;;;;;;;21.63;12.13;;;;;;;;;;4952260;28;20078;-84
2023/01/30 11:19:14;;;;;;;22.13;12.35;;;;;;;;;;4959132;28;20086;-83
2023/01/30 11:21:52;;;;;;;24.88;13.10;;;;;;;;;;4952756;28;20054;-84
2023/01/30 11:24:22;;;;;;;58.22;23.60;;;;;;;;;;4958907;28;20122;-83
2023/01/30 11:26:51;;;;;;;29.50;15.68;;;;;;;;;;4950763;28;20082;-82
2023/01/30 11:29:27;;;;;;;129.40;51.63;;;;;;;;;;4969019;28;20050;-83
2023/01/30 11:31:55;;;;;;;36.85;16.10;;;;;;;;;;4964377;28;20043;-83
2023/01/30 11:34:24;;;;;;;21.10;11.38;;;;;;;;;;4958443;28;20043;-83
2023/01/30 11:36:51;;;;;;;18.33;10.15;;;;;;;;;;4961293;28;20058;-82
2023/01/30 11:39:22;;;;;;;15.18;9.73;;;;;;;;;;4959570;28;20532;-82
2023/01/30 11:41:55;;;;;;;14.40;9.18;;;;;;;;;;4943076;29;20051;-83
2023/01/30 11:44:27;;;;;;;15.93;9.57;;;;;;;;;;4941965;29;20051;-82
2023/01/30 11:46:55;;;;;;;;;;;;;;;;;;4942915;29;20078;-85
2023/01/30 11:49:23;;;;;;;44.67;37.45;;;;;;;;;;4960445;28;19922;-82
2023/01/30 11:52:11;;;;;;;10.65;7.68;;;;;;;;;;4937290;28;20044;-83
2023/01/30 11:54:41;;;;;;;15.20;11.05;;;;;;;;;;4965353;28;20059;-83
2023/01/30 11:57:13;;;;;;;10.65;7.45;;;;;;;;;;4944283;28;20059;-83
2023/01/30 11:59:40;;;;;;;12.43;8.32;;;;;;;;;;4953319;28;20058;-83
2023/01/30 12:02:25;;;;;;;14.73;11.52;;;;;;;;;;4957361;28;20055;-83
2023/01/30 12:04:58;;;;;;;13.52;8.05;;;;;;;;;;4941218;29;20055;-82
2023/01/30 12:07:27;;;;;;;13.68;8.50;;;;;;;;;;4959566;28;20335;-83
2023/01/30 12:09:55;;;;;;;16.92;9.68;;;;;;;;;;4971660;28;20077;-82
2023/01/30 12:12:26;;;;;;;12.50;8.38;;;;;;;;;;4951418;28;20047;-83
2023/01/30 12:14:57;;;;;;;12.88;8.32;;;;;;;;;;4958129;28;20066;-84
2023/01/30 12:17:43;;;;;;;13.00;8.17;;;;;;;;;;4939947;29;20047;-84
2023/01/30 12:20:23;;;;;;;12.95;8.70;;;;;;;;;;4948466;28;20036;-84
2023/01/30 12:23:10;;;;;;;16.92;10.25;;;;;;;;;;4955120;28;20110;-83
2023/01/30 12:25:50;;;;;;;13.75;9.43;;;;;;;;;;4960472;28;20493;-84
2023/01/30 12:28:24;;;;;;;15.60;8.90;;;;;;;;;;4957793;28;20055;-83
2023/01/30 12:31:12;;;;;;;17.35;9.48;;;;;;;;;;4956964;28;20406;-84
2023/01/30 12:33:39;;;;;;;19.05;11.77;;;;;;;;;;4937512;29;20043;-84
2023/01/30 12:36:22;;;;;;;17.05;9.55;;;;;;;;;;4948210;28;20062;-83
2023/01/30 12:38:50;;;;;;;16.10;9.55;;;;;;;;;;4952025;28;20047;-84
2023/01/30 12:41:41;;;;;;;15.85;10.25;;;;;;;;;;4948933;28;20051;-83
2023/01/30 12:44:24;;;;;;;12.88;8.75;;;;;;;;;;4934302;28;20061;-83
2023/01/30 12:46:57;;;;;;;10.27;7.57;;;;;;;;;;4950260;28;20083;-85
2023/01/30 12:49:31;;;;;;;14.38;9.25;;;;;;;;;;4975479;28;20054;-85
2023/01/30 12:52:08;;;;;;;15.90;9.13;;;;;;;;;;4954837;28;20070;-85
2023/01/30 12:54:41;;;;;;;13.50;7.95;;;;;;;;;;4948500;28;20142;-84
2023/01/30 12:57:14;;;;;;;12.27;8.00;;;;;;;;;;4946697;28;20478;-84
2023/01/30 12:59:50;;;;;;;12.93;8.43;;;;;;;;;;4945408;28;20065;-84
2023/01/30 13:02:28;;;;;;;25.23;22.55;;;;;;;;;;4932194;28;20059;-86
2023/01/30 13:05:06;;;;;;;25.30;23.02;;;;;;;;;;4950687;28;20453;-84
2023/01/30 13:07:53;;;;;;;30.50;27.67;;;;;;;;;;4932987;29;20044;-85
2023/01/30 13:10:39;;;;;;;10.63;6.95;;;;;;;;;;4916415;29;20126;-84
2023/01/30 13:13:42;;;;;;;13.70;8.38;;;;;;;;;;4932302;29;20103;-85
2023/01/30 13:16:18;;;;;;;13.30;8.43;;;;;;;;;;4840754;29;20098;-86
2023/01/30 13:18:57;;;;;;;13.52;7.95;;;;;;;;;;4920732;29;20070;-85
2023/01/30 13:21:43;;;;;;;11.95;7.65;;;;;;;;;;4915417;29;20160;-86
2023/01/30 13:24:19;;;;;;;12.05;7.93;;;;;;;;;;4931736;29;20193;-86
2023/01/30 13:26:48;;;;;;;15.90;8.60;;;;;;;;;;4934158;29;20570;-87
2023/01/30 13:29:36;;;;;;;13.77;8.60;;;;;;;;;;4956340;28;20122;-88
2023/01/30 13:32:27;;;;;;;11.82;7.68;;;;;;;;;;4930260;29;20123;-86
2023/01/30 13:34:55;;;;;;;13.13;8.35;;;;;;;;;;4904956;29;20091;-87
2023/01/30 13:37:23;;;;;;;9.70;7.03;;;;;;;;;;4915189;29;20506;-86
2023/01/30 13:39:59;;;;;;;16.15;8.38;;;;;;;;;;4932868;29;20055;-86
2023/01/30 13:42:34;;;;;;;10.98;6.93;;;;;;;;;;4942908;29;20059;-85
2023/01/30 13:45:04;;;;;;;11.02;7.72;;;;;;;;;;4935298;29;20052;-86
2023/01/30 13:48:04;;;;;;;10.65;7.93;;;;;;;;;;4922929;29;20060;-87
2023/01/30 13:50:38;;;;;;;10.25;7.13;;;;;;;;;;4876004;29;20095;-86
2023/01/30 13:53:18;;;;;;;10.93;7.15;;;;;;;;;;4918715;28;20043;-86
2023/01/30 13:55:57;;;;;;;12.60;7.78;;;;;;;;;;4957055;28;20039;-86
2023/01/30 13:58:30;;;;;;;11.95;8.52;;;;;;;;;;4948722;29;20372;-87
2023/01/30 14:00:58;;;;;;;21.27;12.85;;;;;;;;;;4949512;29;20047;-86
2023/01/30 14:03:27;;;;;;;18.95;12.57;;;;;;;;;;4951029;29;20063;-86
2023/01/30 14:05:59;;;;;;;18.10;9.70;;;;;;;;;;4934767;29;20079;-84
2023/01/30 14:08:35;;;;;;;12.55;8.43;;;;;;;;;;4964226;28;20051;-84
2023/01/30 14:11:02;;;;;;;14.95;9.23;;;;;;;;;;4963856;29;20051;-84
2023/01/30 14:13:29;;;;;;;26.83;24.63;;;;;;;;;;4961247;29;20055;-83
2023/01/30 14:16:03;;;;;;;11.07;7.32;;;;;;;;;;4954930;29;20110;-84
2023/01/30 14:18:35;;;;;;;8.95;6.65;;;;;;;;;;4953457;29;20154;-84
2023/01/30 14:21:23;;;;;;;15.50;8.30;;;;;;;;;;4936535;29;20051;-84
2023/01/30 14:23:59;;;;;;;9.63;7.25;;;;;;;;;;4957702;28;20050;-84
2023/01/30 14:26:46;;;;;;;33.65;28.58;;;;;;;;;;4959560;29;20059;-82
2023/01/30 14:29:32;;;;;;;11.50;9.40;;;;;;;;;;4960492;29;20070;-82
2023/01/30 14:32:00;;;;;;;12.95;7.07;;;;;;;;;;4943098;29;20094;-82
2023/01/30 14:34:38;;;;;;;8.13;5.63;;;;;;;;;;4943150;29;20095;-82
2023/01/30 14:37:24;;;;;;;14.70;13.50;;;;;;;;;;4962828;29;20059;-82
2023/01/30 14:39:53;;;;;;;9.20;6.93;;;;;;;;;;4940679;29;20070;-81
2023/01/30 14:42:20;;;;;;;12.70;7.50;;;;;;;;;;4940664;29;20114;-83
2023/01/30 14:44:57;;;;;;;11.52;10.52;;;;;;;;;;4956102;29;20055;-83
2023/01/30 14:47:24;;;;;;;50.53;46.60;;;;;;;;;;4944925;29;20045;-84
2023/01/30 14:50:20;;;;;;;7.78;6.38;;;;;;;;;;4967817;28;20078;-84
2023/01/30 14:52:49;;;;;;;8.57;6.55;;;;;;;;;;4959122;29;20040;-84
2023/01/30 14:55:19;;;;;;;8.82;6.57;;;;;;;;;;4933609;29;20062;-84
2023/01/30 14:57:55;;;;;;;9.30;6.15;;;;;;;;;;4941686;29;20051;-85
2023/01/30 15:03:20;;;;;;;10.65;7.25;;;;;;;;;;4924017;29;20099;-82